createdAt,value
2023-11-17T00:02:45.799Z,2.47
2023-11-17T00:07:49.707Z,2.48
2023-11-17T00:12:53.767Z,2.45
2023-11-17T00:17:57.922Z,2.44
2023-11-17T00:23:01.991Z,2.42
2023-11-17T00:28:06.069Z,2.38
2023-11-17T00:33:10.618Z,2.38
2023-11-17T00:38:15.528Z,2.38
2023-11-17T00:43:20.542Z,2.37
2023-11-17T00:48:24.648Z,2.37
2023-11-17T00:53:31.113Z,2.37
2023-11-17T00:59:24.241Z,2.36
2023-11-17T01:04:28.070Z,2.36
2023-11-17T01:09:32.125Z,2.34
2023-11-17T01:14:36.255Z,2.07
2023-11-17T01:19:42.080Z,2.28
2023-11-17T01:24:46.235Z,2.21
2023-11-17T01:29:50.152Z,2.24
2023-11-17T01:34:58.880Z,2.18
2023-11-17T01:40:02.931Z,2.15
2023-11-17T01:45:10.651Z,2.11
2023-11-17T01:50:16.568Z,2.06
2023-11-17T01:55:21.191Z,2.03
2023-11-17T02:00:25.929Z,2.01
2023-11-17T02:05:30.110Z,1.99
2023-11-17T02:10:48.444Z,1.96
2023-11-17T02:15:57.248Z,1.95
2023-11-17T02:21:02.215Z,1.98
2023-11-17T02:26:19.129Z,1.96
2023-11-17T02:31:31.304Z,1.93
2023-11-17T02:36:35.988Z,1.92
2023-11-17T02:41:44.922Z,1.93
2023-11-17T02:47:00.917Z,1.92
2023-11-17T02:52:22.252Z,1.92
2023-11-17T02:57:28.620Z,1.84
2023-11-17T03:02:32.859Z,1.83
2023-11-17T03:07:39.872Z,1.87
2023-11-17T03:12:43.969Z,1.87
2023-11-17T03:17:47.796Z,1.83
2023-11-17T03:22:51.702Z,1.81
2023-11-17T03:27:56.499Z,1.82
2023-11-17T03:33:00.722Z,1.81
2023-11-17T03:38:04.881Z,1.77
2023-11-17T03:43:08.779Z,1.79
2023-11-17T03:48:12.887Z,1.83
2023-11-17T03:53:17.676Z,1.85
2023-11-17T03:58:21.757Z,1.89
2023-11-17T04:03:26.684Z,1.91
2023-11-17T04:08:30.520Z,1.92
2023-11-17T04:13:38.517Z,1.87
2023-11-17T04:18:43.265Z,1.81
2023-11-17T04:23:47.121Z,1.78
2023-11-17T04:28:51.343Z,1.76
2023-11-17T04:33:56.553Z,1.71
2023-11-17T04:39:01.332Z,1.68
2023-11-17T04:44:08.355Z,1.70
2023-11-17T04:49:14.989Z,1.69
2023-11-17T04:54:18.799Z,1.44
2023-11-17T04:59:23.662Z,1.70
2023-11-17T05:04:27.663Z,1.72
2023-11-17T05:09:32.243Z,1.69
2023-11-17T05:14:38.638Z,1.64
2023-11-17T05:19:42.536Z,1.57
2023-11-17T05:24:46.673Z,1.47
2023-11-17T05:29:50.509Z,1.43
2023-11-17T05:34:55.057Z,1.42
2023-11-17T05:39:59.053Z,1.56
2023-11-17T05:45:04.085Z,1.75
2023-11-17T05:50:13.734Z,1.87
2023-11-17T05:55:19.287Z,1.99
2023-11-17T06:00:23.501Z,2.07
2023-11-17T06:05:27.405Z,2.02
2023-11-17T06:10:31.368Z,1.99
2023-11-17T06:15:36.791Z,2.03
2023-11-17T06:20:41.673Z,2.06
2023-11-17T06:25:45.889Z,2.02
2023-11-17T06:30:49.822Z,2.02
2023-11-17T06:35:54.087Z,1.83
2023-11-17T06:40:58.484Z,2.08
2023-11-17T06:46:03.714Z,2.11
2023-11-17T06:51:10.524Z,2.15
2023-11-17T06:56:14.595Z,2.18
2023-11-17T07:01:21.324Z,2.19
2023-11-17T07:06:29.230Z,2.20
2023-11-17T07:11:34.070Z,2.22
2023-11-17T07:16:43.948Z,2.20
2023-11-17T07:21:52.394Z,2.27
2023-11-17T07:27:00.059Z,2.30
2023-11-17T07:32:06.274Z,2.30
2023-11-17T07:37:10.176Z,2.29
2023-11-17T07:42:15.445Z,2.24
2023-11-17T07:47:20.498Z,2.23
2023-11-17T07:52:25.218Z,2.24
2023-11-17T07:57:29.112Z,2.12
2023-11-17T08:02:33.016Z,2.20
2023-11-17T08:07:37.048Z,2.20
2023-11-17T08:12:41.173Z,2.18
2023-11-17T08:17:45.615Z,2.13
2023-11-17T08:22:50.560Z,1.90
2023-11-17T08:27:55.377Z,2.08
2023-11-17T08:32:59.360Z,2.07
2023-11-17T08:38:03.434Z,2.04
2023-11-17T08:43:07.377Z,2.00
2023-11-17T08:48:11.430Z,1.98
2023-11-17T08:53:15.500Z,1.98
2023-11-17T08:58:19.322Z,1.97
2023-11-17T09:03:23.374Z,1.91
2023-11-17T09:08:27.840Z,1.89
2023-11-17T09:13:31.920Z,1.45
2023-11-17T09:18:37.901Z,1.91
2023-11-17T09:23:41.803Z,1.87
2023-11-17T09:28:45.825Z,1.85
2023-11-17T09:33:49.924Z,1.58
2023-11-17T09:38:55.576Z,1.54
2023-11-17T09:44:00.753Z,1.66
2023-11-17T09:49:07.184Z,1.56
2023-11-17T09:54:15.836Z,1.51
2023-11-17T09:59:19.779Z,1.46
2023-11-17T10:04:27.207Z,1.39
2023-11-17T10:09:32.918Z,1.31
2023-11-17T10:14:39.872Z,1.22
2023-11-17T10:19:44.582Z,1.15
2023-11-17T10:24:48.789Z,1.00
2023-11-17T10:29:52.734Z,0.73
2023-11-17T10:35:26.262Z,0.88
2023-11-17T10:40:33.669Z,0.84
2023-11-17T10:45:49.443Z,0.85
2023-11-17T10:51:07.088Z,0.86
2023-11-17T10:56:29.086Z,0.86
2023-11-17T11:01:36.190Z,0.89
2023-11-17T11:06:40.792Z,0.93
2023-11-17T11:11:52.558Z,0.96
2023-11-17T11:16:57.674Z,1.01
2023-11-17T11:22:03.268Z,1.06
2023-11-17T11:27:09.120Z,1.12
2023-11-17T11:32:15.860Z,1.14
2023-11-17T11:38:00.076Z,1.15
2023-11-17T11:43:05.895Z,1.16
2023-11-17T11:48:10.642Z,1.21
2023-11-17T11:53:14.649Z,1.26
2023-11-17T11:58:18.595Z,1.29
2023-11-17T12:03:26.804Z,1.30
2023-11-17T12:08:33.312Z,1.31
2023-11-17T12:13:55.142Z,1.26
2023-11-17T12:19:07.880Z,1.32
2023-11-17T12:24:25.505Z,1.20
2023-11-17T12:29:35.020Z,1.25
2023-11-17T12:34:44.072Z,1.25
2023-11-17T12:39:49.996Z,1.25
2023-11-17T12:44:55.110Z,1.26
2023-11-17T12:49:59.026Z,1.29
2023-11-17T12:55:09.355Z,1.33
2023-11-17T13:00:23.326Z,1.38
2023-11-17T13:05:28.442Z,1.37
2023-11-17T13:10:32.943Z,1.38
2023-11-17T13:15:37.152Z,1.32
2023-11-17T13:20:41.722Z,1.39
2023-11-17T13:26:05.301Z,1.33
2023-11-17T13:31:24.128Z,1.39
2023-11-17T13:36:37.433Z,1.38
2023-11-17T13:41:46.023Z,1.38
2023-11-17T13:46:51.355Z,1.31
2023-11-17T13:52:03.892Z,1.26
2023-11-17T13:57:09.544Z,1.22
2023-11-17T14:02:13.617Z,1.20
2023-11-17T14:07:17.636Z,1.21
2023-11-17T14:12:23.190Z,1.15
2023-11-17T14:17:28.395Z,1.11
2023-11-17T14:22:32.420Z,1.05
2023-11-17T14:27:36.457Z,1.01
2023-11-17T14:32:40.723Z,0.94
2023-11-17T14:37:46.404Z,0.90
2023-11-17T14:42:53.598Z,0.80
2023-11-17T14:47:58.735Z,0.55
2023-11-17T14:53:02.742Z,0.59
2023-11-17T14:58:10.506Z,0.60
2023-11-17T15:03:15.449Z,0.61
2023-11-17T15:09:00.442Z,0.58
2023-11-17T15:14:06.267Z,0.53
2023-11-17T15:19:14.219Z,0.46
2023-11-17T15:24:26.133Z,0.37
2023-11-17T15:29:32.018Z,0.17
2023-11-17T15:34:37.037Z,0.04
2023-11-17T15:39:43.000Z,-0.06
2023-11-17T15:44:47.900Z,-0.11
2023-11-17T15:49:51.928Z,-0.13
2023-11-17T15:54:57.143Z,-0.06
2023-11-17T16:00:01.034Z,0.01
2023-11-17T16:05:07.469Z,-0.04
2023-11-17T16:10:24.040Z,0.06
2023-11-17T16:15:28.998Z,0.10
2023-11-17T16:20:33.470Z,0.16
2023-11-17T16:25:39.747Z,0.21
2023-11-17T16:30:43.767Z,0.18
2023-11-17T16:35:48.822Z,0.25
2023-11-17T16:40:54.320Z,0.28
2023-11-17T16:45:58.774Z,0.30
2023-11-17T16:51:04.071Z,0.29
2023-11-17T16:56:09.545Z,0.33
2023-11-17T17:01:16.139Z,0.29
2023-11-17T17:06:20.833Z,0.32
2023-11-17T17:11:25.984Z,0.30
2023-11-17T17:16:32.433Z,0.30
2023-11-17T17:21:36.508Z,0.32
2023-11-17T17:26:41.440Z,0.39
2023-11-17T17:31:45.603Z,0.41
2023-11-17T17:36:49.652Z,0.42
2023-11-17T17:41:53.893Z,0.47
2023-11-17T17:46:59.641Z,0.48
2023-11-17T17:52:03.638Z,0.53
2023-11-17T17:57:09.259Z,0.52
2023-11-17T18:02:13.259Z,0.52
2023-11-17T18:07:19.964Z,0.51
2023-11-17T18:12:25.666Z,0.59
2023-11-17T18:17:30.258Z,0.58
2023-11-17T18:22:36.306Z,0.57
2023-11-17T18:27:41.782Z,0.54
2023-11-17T18:32:46.771Z,0.50
2023-11-17T18:37:52.408Z,0.55
2023-11-17T18:43:01.026Z,0.47
2023-11-17T18:48:05.562Z,0.50
2023-11-17T18:53:10.164Z,0.59
2023-11-17T18:58:14.266Z,0.54
2023-11-17T19:03:18.597Z,0.51
2023-11-17T19:08:22.536Z,0.52
2023-11-17T19:13:26.871Z,0.54
2023-11-17T19:18:32.734Z,0.57
2023-11-17T19:23:36.972Z,0.59
2023-11-17T19:28:41.001Z,0.38
2023-11-17T19:33:45.425Z,0.57
2023-11-17T19:38:49.607Z,0.54
2023-11-17T19:43:53.699Z,0.46
2023-11-17T19:48:57.611Z,0.42
2023-11-17T19:54:01.533Z,0.38
2023-11-17T19:59:06.339Z,0.37
2023-11-17T20:04:14.563Z,0.40
2023-11-17T20:09:26.947Z,0.38
2023-11-17T20:14:30.931Z,0.43
2023-11-17T20:19:35.004Z,0.35
2023-11-17T20:24:39.104Z,0.25
2023-11-17T20:29:44.262Z,0.16
2023-11-17T20:34:48.542Z,0.11
2023-11-17T20:39:52.781Z,0.11
2023-11-17T20:44:57.271Z,0.01
2023-11-17T20:50:02.034Z,-0.10
2023-11-17T20:55:07.132Z,-0.14
2023-11-17T21:00:12.532Z,-0.13
2023-11-17T21:05:16.840Z,-0.19
2023-11-17T21:10:23.811Z,-0.28
2023-11-17T21:15:28.920Z,-0.60
2023-11-17T21:20:35.092Z,-0.39
2023-11-17T21:25:40.410Z,-0.51
2023-11-17T21:30:44.378Z,-0.55
2023-11-17T21:35:48.733Z,-0.60
2023-11-17T21:40:58.270Z,-0.53
2023-11-17T21:46:03.866Z,-0.50
2023-11-17T21:51:12.181Z,-0.43
2023-11-17T21:56:22.120Z,-0.65
2023-11-17T22:01:26.353Z,-0.36
2023-11-17T22:06:30.274Z,-0.23
2023-11-17T22:11:35.636Z,-0.18
2023-11-17T22:16:39.425Z,-0.12
2023-11-17T22:21:43.474Z,-0.08
2023-11-17T22:26:48.456Z,0.01
2023-11-17T22:31:52.292Z,0.09
2023-11-17T22:36:59.065Z,0.15
2023-11-17T22:42:02.866Z,0.29
2023-11-17T22:47:07.005Z,0.35
2023-11-17T22:52:10.976Z,0.43
2023-11-17T22:57:14.821Z,0.48
2023-11-17T23:02:20.406Z,0.24
2023-11-17T23:07:27.993Z,0.54
2023-11-17T23:12:31.981Z,0.61
2023-11-17T23:17:36.307Z,0.63
2023-11-17T23:22:41.761Z,0.65
2023-11-17T23:27:45.894Z,0.67
2023-11-17T23:32:50.101Z,0.61
2023-11-17T23:37:54.761Z,0.71
2023-11-17T23:42:58.822Z,0.75
2023-11-17T23:48:04.200Z,0.78
2023-11-17T23:53:09.644Z,0.80
2023-11-17T23:58:14.155Z,0.83
